createdAt,value
2019-06-20T00:01:23.174Z,87.61
2019-06-20T00:03:52.328Z,87.39
2019-06-20T00:06:20.533Z,87.60
2019-06-20T00:08:49.680Z,88.08
2019-06-20T00:11:18.242Z,88.59
2019-06-20T00:13:46.768Z,88.56
2019-06-20T00:16:15.306Z,89.09
2019-06-20T00:18:44.122Z,88.20
2019-06-20T00:21:12.989Z,87.81
2019-06-20T00:23:41.666Z,88.08
2019-06-20T00:26:09.939Z,87.82
2019-06-20T00:28:38.481Z,87.74
2019-06-20T00:31:06.634Z,86.80
2019-06-20T00:33:34.962Z,86.17
2019-06-20T00:36:03.789Z,86.43
2019-06-20T00:38:32.570Z,86.00
2019-06-20T00:41:00.779Z,85.80
2019-06-20T00:43:29.111Z,85.12
2019-06-20T00:45:57.361Z,85.01
2019-06-20T00:48:25.642Z,85.83
2019-06-20T00:50:54.265Z,85.67
2019-06-20T00:53:22.986Z,84.79
2019-06-20T00:55:51.529Z,84.66
2019-06-20T00:58:20.175Z,84.33
2019-06-20T01:00:48.317Z,84.67
2019-06-20T01:03:19.133Z,85.33
2019-06-20T01:05:47.306Z,85.09
2019-06-20T01:08:15.591Z,84.50
2019-06-20T01:10:43.775Z,84.18
2019-06-20T01:13:12.239Z,83.42
2019-06-20T01:15:40.743Z,84.17
2019-06-20T01:18:09.373Z,84.61
2019-06-20T01:20:37.578Z,83.95
2019-06-20T01:23:06.369Z,83.79
2019-06-20T01:25:40.143Z,85.50
2019-06-20T01:28:09.112Z,85.63
2019-06-20T01:30:37.681Z,84.77
2019-06-20T01:33:06.237Z,84.58
2019-06-20T01:35:34.485Z,85.30
2019-06-20T01:38:02.761Z,84.93
2019-06-20T01:40:31.480Z,84.00
2019-06-20T01:42:59.731Z,83.86
2019-06-20T01:45:28.026Z,83.48
2019-06-20T01:47:56.176Z,83.31
2019-06-20T01:50:24.382Z,83.52
2019-06-20T01:52:52.605Z,83.46
2019-06-20T01:55:21.235Z,83.73
2019-06-20T01:57:49.689Z,84.04
2019-06-20T02:00:46.728Z,83.58
2019-06-20T02:03:16.154Z,83.64
2019-06-20T02:05:44.929Z,83.76
2019-06-20T02:08:13.234Z,83.44
2019-06-20T02:10:42.627Z,83.26
2019-06-20T02:13:11.091Z,84.16
2019-06-20T02:15:39.421Z,83.75
2019-06-20T02:18:07.769Z,83.26
2019-06-20T02:20:39.892Z,83.41
2019-06-20T02:23:08.150Z,83.60
2019-06-20T02:25:36.398Z,83.44
2019-06-20T02:28:04.763Z,83.65
2019-06-20T02:30:33.280Z,83.70
2019-06-20T02:33:01.652Z,83.30
2019-06-20T02:35:30.049Z,83.49
2019-06-20T02:37:58.587Z,83.49
2019-06-20T02:40:26.917Z,83.22
2019-06-20T02:42:55.306Z,83.60
2019-06-20T02:45:23.780Z,83.30
2019-06-20T02:47:52.854Z,83.43
2019-06-20T02:50:21.500Z,83.46
2019-06-20T02:52:50.277Z,83.41
2019-06-20T02:55:18.415Z,83.21
2019-06-20T02:57:46.650Z,83.38
2019-06-20T03:00:17.134Z,82.91
2019-06-20T03:02:45.615Z,83.57
2019-06-20T03:05:14.741Z,83.83
2019-06-20T03:07:43.194Z,83.38
2019-06-20T03:10:12.090Z,83.68
2019-06-20T03:12:40.567Z,83.60
2019-06-20T03:15:09.628Z,83.88
2019-06-20T03:17:38.127Z,83.76
2019-06-20T03:20:09.165Z,83.38
2019-06-20T03:22:37.449Z,83.69
2019-06-20T03:25:06.049Z,83.38
2019-06-20T03:27:34.182Z,82.88
2019-06-20T03:30:02.545Z,83.54
2019-06-20T03:32:30.796Z,83.38
2019-06-20T03:34:58.955Z,83.25
2019-06-20T03:37:27.414Z,83.21
2019-06-20T03:39:55.574Z,83.12
2019-06-20T03:42:24.038Z,83.35
2019-06-20T03:45:01.697Z,83.49
2019-06-20T03:47:22.555Z,83.01
2019-06-20T03:49:50.747Z,83.17
2019-06-20T03:52:18.993Z,82.51
2019-06-20T03:54:47.440Z,82.07
2019-06-20T03:57:15.915Z,81.84
2019-06-20T03:59:44.171Z,80.88
2019-06-20T04:02:13.004Z,82.22
2019-06-20T04:04:41.501Z,82.08
2019-06-20T04:07:10.255Z,81.93
2019-06-20T04:09:38.433Z,81.67
2019-06-20T04:12:06.619Z,82.05
2019-06-20T04:14:34.784Z,81.83
2019-06-20T04:17:03.991Z,81.56
2019-06-20T04:19:32.286Z,81.78
2019-06-20T04:22:00.633Z,81.75
2019-06-20T04:24:29.097Z,81.33
2019-06-20T04:26:57.285Z,81.42
2019-06-20T04:29:25.634Z,81.30
2019-06-20T04:31:53.995Z,81.42
2019-06-20T04:34:22.153Z,81.58
2019-06-20T04:36:51.028Z,81.37
2019-06-20T04:39:19.858Z,81.68
2019-06-20T04:41:48.181Z,81.83
2019-06-20T04:44:16.406Z,82.38
2019-06-20T04:46:50.550Z,82.15
2019-06-20T04:49:19.915Z,82.37
2019-06-20T04:51:48.881Z,82.21
2019-06-20T04:54:17.237Z,82.56
2019-06-20T04:56:46.299Z,82.97
2019-06-20T04:59:14.833Z,82.71
2019-06-20T05:01:42.978Z,83.41
2019-06-20T05:04:11.274Z,83.20
2019-06-20T05:06:43.705Z,82.88
2019-06-20T05:09:11.969Z,83.41
2019-06-20T05:11:40.977Z,83.32
2019-06-20T05:14:09.922Z,83.42
2019-06-20T05:16:38.356Z,83.01
2019-06-20T05:19:06.595Z,82.43
2019-06-20T05:21:34.850Z,81.86
2019-06-20T05:24:04.165Z,81.73
2019-06-20T05:26:32.376Z,81.29
2019-06-20T05:29:00.734Z,81.10
2019-06-20T05:31:28.886Z,81.02
2019-06-20T05:33:57.120Z,80.84
2019-06-20T05:36:25.374Z,80.75
2019-06-20T05:38:53.890Z,80.32
2019-06-20T05:41:22.388Z,80.22
2019-06-20T05:43:51.212Z,80.63
2019-06-20T05:46:19.979Z,80.35
2019-06-20T05:48:48.578Z,80.35
2019-06-20T05:51:16.744Z,79.76
2019-06-20T05:53:45.387Z,79.34
2019-06-20T05:56:13.975Z,79.05
2019-06-20T05:58:42.678Z,78.64
2019-06-20T06:01:11.836Z,77.64
2019-06-20T06:03:40.496Z,76.11
2019-06-20T06:06:08.730Z,75.56
2019-06-20T06:08:36.883Z,72.37
2019-06-20T06:11:05.775Z,69.97
2019-06-20T06:13:33.926Z,70.35
2019-06-20T06:16:02.141Z,68.41
2019-06-20T06:18:30.394Z,68.68
2019-06-20T06:20:58.596Z,69.11
2019-06-20T06:23:27.024Z,69.27
2019-06-20T06:25:56.472Z,70.05
2019-06-20T06:28:24.647Z,70.73
2019-06-20T06:30:52.839Z,69.82
2019-06-20T06:33:21.755Z,70.81
2019-06-20T06:35:49.956Z,71.03
2019-06-20T06:38:22.124Z,72.18
2019-06-20T06:40:48.212Z,72.01
2019-06-20T06:43:16.510Z,71.32
2019-06-20T06:45:44.847Z,71.50
2019-06-20T06:48:13.298Z,71.93
2019-06-20T06:50:41.596Z,71.33
2019-06-20T06:53:09.875Z,70.74
2019-06-20T06:55:38.078Z,70.87
2019-06-20T06:58:06.379Z,70.22
2019-06-20T07:00:34.605Z,69.60
2019-06-20T07:03:03.590Z,70.43
2019-06-20T07:05:31.824Z,70.85
2019-06-20T07:08:00.073Z,70.30
2019-06-20T07:10:28.306Z,68.70
2019-06-20T07:12:56.578Z,68.95
2019-06-20T07:15:26.948Z,69.02
2019-06-20T07:17:55.131Z,68.94
2019-06-20T07:20:23.539Z,69.78
2019-06-20T07:22:53.786Z,69.11
2019-06-20T07:25:22.026Z,69.81
2019-06-20T07:27:50.336Z,69.33
2019-06-20T07:30:18.684Z,69.46
2019-06-20T07:32:46.862Z,69.12
2019-06-20T07:35:15.215Z,70.10
2019-06-20T07:37:43.854Z,70.76
2019-06-20T07:40:12.843Z,69.46
2019-06-20T07:42:41.002Z,69.37
2019-06-20T07:45:10.599Z,68.66
2019-06-20T07:47:39.061Z,68.16
2019-06-20T07:50:08.607Z,68.57
2019-06-20T07:52:36.908Z,67.63
2019-06-20T07:55:05.857Z,66.44
2019-06-20T07:57:34.407Z,64.91
2019-06-20T08:00:03.578Z,63.96
2019-06-20T08:02:32.020Z,64.04
2019-06-20T08:05:00.154Z,63.95
2019-06-20T08:07:28.448Z,63.98
2019-06-20T08:09:56.591Z,64.25
2019-06-20T08:12:25.051Z,62.84
2019-06-20T08:14:53.990Z,61.45
2019-06-20T08:17:34.833Z,60.45
2019-06-20T08:19:52.422Z,60.07
2019-06-20T08:22:21.180Z,58.06
2019-06-20T08:24:49.669Z,57.10
2019-06-20T08:27:20.141Z,58.82
2019-06-20T08:29:48.577Z,45.48
2019-06-20T08:32:16.749Z,57.20
2019-06-20T08:34:44.884Z,59.29
2019-06-20T08:37:13.061Z,57.91
2019-06-20T08:39:41.268Z,57.74
2019-06-20T08:42:09.765Z,58.04
2019-06-20T08:44:37.957Z,56.77
2019-06-20T08:47:06.202Z,56.71
2019-06-20T08:49:34.349Z,55.61
2019-06-20T08:52:03.920Z,56.05
2019-06-20T08:54:32.164Z,56.95
2019-06-20T08:57:00.854Z,57.20
2019-06-20T08:59:29.124Z,55.11
2019-06-20T09:01:59.976Z,55.63
2019-06-20T09:04:27.853Z,54.83
2019-06-20T09:06:57.516Z,54.84
2019-06-20T09:09:26.337Z,55.58
2019-06-20T09:11:56.458Z,53.14
2019-06-20T09:14:24.790Z,54.36
2019-06-20T09:16:54.698Z,52.11
2019-06-20T09:19:23.642Z,54.95
2019-06-20T09:21:53.903Z,52.62
2019-06-20T09:24:22.131Z,52.84
2019-06-20T09:26:51.129Z,52.01
2019-06-20T09:29:20.636Z,53.11
2019-06-20T09:31:48.911Z,52.88
2019-06-20T09:34:17.559Z,51.89
2019-06-20T09:36:46.080Z,54.74
2019-06-20T09:39:14.819Z,55.12
2019-06-20T09:41:43.189Z,54.51
2019-06-20T09:44:11.444Z,53.91
2019-06-20T09:46:42.802Z,54.18
2019-06-20T09:49:11.523Z,49.64
2019-06-20T09:51:39.694Z,54.37
2019-06-20T09:54:08.139Z,54.68
2019-06-20T09:56:36.568Z,55.42
2019-06-20T09:59:05.367Z,55.44
2019-06-20T10:01:34.224Z,55.11
2019-06-20T10:04:02.701Z,53.66
2019-06-20T10:06:32.238Z,53.67
2019-06-20T10:09:00.391Z,52.94
2019-06-20T10:11:28.569Z,52.37
2019-06-20T10:13:58.475Z,50.86
2019-06-20T10:16:26.877Z,50.02
2019-06-20T10:18:56.474Z,50.95
2019-06-20T10:21:24.878Z,50.47
2019-06-20T10:23:53.952Z,50.10
2019-06-20T10:26:22.714Z,50.09
2019-06-20T10:28:51.402Z,49.29
2019-06-20T10:31:19.894Z,48.52
2019-06-20T10:33:48.445Z,48.96
2019-06-20T10:36:16.682Z,48.60
2019-06-20T10:38:46.420Z,48.23
2019-06-20T10:41:14.845Z,48.58
2019-06-20T10:43:44.697Z,48.69
2019-06-20T10:46:14.018Z,47.02
2019-06-20T10:48:43.104Z,46.84
2019-06-20T10:51:33.078Z,46.89
2019-06-20T10:54:01.387Z,46.31
2019-06-20T10:56:30.002Z,45.56
2019-06-20T10:58:58.559Z,45.65
2019-06-20T11:01:27.209Z,45.73
2019-06-20T11:03:55.566Z,46.55
2019-06-20T11:06:24.919Z,46.12
2019-06-20T11:08:53.605Z,45.32
2019-06-20T11:11:22.249Z,45.67
2019-06-20T11:13:50.422Z,45.59
2019-06-20T11:16:18.665Z,46.34
2019-06-20T11:18:46.935Z,46.43
2019-06-20T11:21:15.801Z,47.07
2019-06-20T11:23:45.247Z,46.02
2019-06-20T11:26:13.503Z,47.87
2019-06-20T11:28:41.647Z,46.27
2019-06-20T11:31:10.264Z,45.63
2019-06-20T11:33:40.281Z,45.84
2019-06-20T11:36:08.598Z,45.88
2019-06-20T11:38:39.026Z,46.24
2019-06-20T11:41:07.187Z,46.61
2019-06-20T11:43:36.298Z,46.62
2019-06-20T11:46:04.648Z,45.65
2019-06-20T11:48:34.347Z,46.73
2019-06-20T11:51:03.127Z,47.68
2019-06-20T11:53:31.859Z,48.13
2019-06-20T11:56:01.471Z,47.47
2019-06-20T11:58:30.627Z,46.21
2019-06-20T12:01:03.993Z,45.46
2019-06-20T12:03:29.413Z,45.43
2019-06-20T12:05:57.703Z,46.61
2019-06-20T12:08:26.305Z,44.53
2019-06-20T12:10:55.138Z,45.25
2019-06-20T12:13:23.374Z,46.26
2019-06-20T12:15:51.570Z,46.22
2019-06-20T12:18:20.287Z,46.50
2019-06-20T12:20:48.913Z,46.66
2019-06-20T12:23:17.590Z,46.47
2019-06-20T12:25:46.639Z,47.56
2019-06-20T12:28:15.103Z,47.42
2019-06-20T12:30:45.593Z,47.03
2019-06-20T12:33:14.256Z,45.89
2019-06-20T12:35:42.795Z,46.03
2019-06-20T12:38:11.499Z,46.65
2019-06-20T12:40:41.340Z,46.60
2019-06-20T12:43:10.351Z,46.73
2019-06-20T12:45:40.017Z,46.11
2019-06-20T12:48:09.432Z,44.99
2019-06-20T12:50:39.731Z,44.05
2019-06-20T12:53:08.915Z,44.10
2019-06-20T12:55:37.272Z,45.63
2019-06-20T12:58:06.830Z,42.91
2019-06-20T13:00:37.634Z,42.81
2019-06-20T13:03:07.469Z,43.11
2019-06-20T13:05:36.021Z,42.87
2019-06-20T13:08:04.560Z,43.68
2019-06-20T13:10:33.145Z,43.12
2019-06-20T13:13:01.671Z,43.93
2019-06-20T13:15:29.899Z,43.57
2019-06-20T13:17:58.070Z,43.25
2019-06-20T13:20:26.369Z,42.49
2019-06-20T13:22:54.894Z,43.53
2019-06-20T13:25:23.413Z,42.68
2019-06-20T13:27:51.904Z,41.76
2019-06-20T13:30:21.850Z,41.59
2019-06-20T13:32:50.018Z,41.92
2019-06-20T13:35:19.342Z,41.71
2019-06-20T13:37:49.210Z,42.02
2019-06-20T13:40:18.403Z,41.05
2019-06-20T13:42:48.064Z,41.84
2019-06-20T13:45:22.685Z,41.89
2019-06-20T13:47:51.437Z,42.95
2019-06-20T13:50:20.125Z,43.62
2019-06-20T13:52:49.615Z,43.68
2019-06-20T13:55:18.891Z,43.31
2019-06-20T13:57:47.332Z,43.43
2019-06-20T14:00:19.709Z,43.14
2019-06-20T14:02:48.982Z,42.80
2019-06-20T14:05:17.959Z,43.52
2019-06-20T14:07:50.485Z,42.77
2019-06-20T14:10:17.081Z,42.33
2019-06-20T14:12:46.718Z,43.33
2019-06-20T14:15:15.712Z,43.18
2019-06-20T14:17:44.905Z,43.57
2019-06-20T14:20:13.620Z,43.52
2019-06-20T14:22:42.872Z,44.01
2019-06-20T14:25:12.250Z,43.50
2019-06-20T14:27:40.455Z,43.09
2019-06-20T14:30:10.716Z,43.99
2019-06-20T14:32:38.906Z,46.99
2019-06-20T14:35:07.366Z,47.00
2019-06-20T14:37:36.407Z,48.43
2019-06-20T14:40:05.447Z,50.06
2019-06-20T14:42:34.482Z,50.81
2019-06-20T14:45:03.626Z,52.76
2019-06-20T14:47:32.057Z,53.62
2019-06-20T14:50:00.664Z,54.61
2019-06-20T14:52:28.861Z,55.87
2019-06-20T14:54:57.465Z,55.23
2019-06-20T14:57:26.025Z,55.23
2019-06-20T14:59:54.496Z,55.40
2019-06-20T15:02:37.192Z,59.46
2019-06-20T15:04:54.379Z,58.65
2019-06-20T15:07:23.449Z,56.45
2019-06-20T15:09:53.144Z,53.84
2019-06-20T15:12:21.842Z,54.39
2019-06-20T15:14:51.392Z,53.60
2019-06-20T15:17:19.843Z,55.09
2019-06-20T15:19:49.379Z,53.18
2019-06-20T15:22:18.085Z,54.33
2019-06-20T15:24:48.619Z,53.65
2019-06-20T15:27:16.862Z,53.96
2019-06-20T15:29:47.056Z,53.99
2019-06-20T15:32:15.744Z,54.62
2019-06-20T15:34:44.448Z,54.84
2019-06-20T15:37:12.965Z,51.67
2019-06-20T15:39:41.521Z,51.60
2019-06-20T15:42:10.385Z,50.69
2019-06-20T15:44:38.609Z,50.34
2019-06-20T15:47:06.818Z,49.42
2019-06-20T15:49:35.019Z,49.51
2019-06-20T15:52:03.231Z,50.43
2019-06-20T15:54:31.405Z,50.60
2019-06-20T15:56:59.698Z,50.89
2019-06-20T15:59:28.144Z,52.03
2019-06-20T16:01:56.357Z,51.00
2019-06-20T16:04:24.563Z,51.32
2019-06-20T16:06:53.583Z,51.17
2019-06-20T16:09:22.630Z,51.07
2019-06-20T16:11:51.273Z,50.83
2019-06-20T16:14:20.162Z,51.27
2019-06-20T16:16:48.870Z,51.02
2019-06-20T16:19:17.109Z,52.19
2019-06-20T16:21:46.233Z,52.60
2019-06-20T16:24:14.452Z,52.68
2019-06-20T16:26:42.666Z,52.77
2019-06-20T16:29:10.909Z,53.65
2019-06-20T16:31:39.049Z,53.96
2019-06-20T16:34:08.367Z,53.64
2019-06-20T16:36:36.913Z,53.12
2019-06-20T16:39:07.150Z,52.50
2019-06-20T16:41:35.390Z,52.03
2019-06-20T16:44:03.721Z,51.26
2019-06-20T16:46:32.237Z,50.76
2019-06-20T16:49:00.382Z,50.56
2019-06-20T16:51:29.311Z,51.34
2019-06-20T16:53:57.645Z,50.91
2019-06-20T16:56:25.920Z,50.01
2019-06-20T16:58:54.088Z,50.15
2019-06-20T17:01:22.668Z,49.91
2019-06-20T17:03:52.325Z,50.05
2019-06-20T17:06:20.963Z,50.63
2019-06-20T17:08:49.416Z,49.92
2019-06-20T17:11:17.576Z,50.09
2019-06-20T17:13:46.059Z,49.29
2019-06-20T17:16:14.300Z,49.73
2019-06-20T17:18:42.583Z,49.57
2019-06-20T17:21:11.098Z,49.70
2019-06-20T17:23:39.253Z,49.83
2019-06-20T17:26:07.795Z,50.19
2019-06-20T17:28:36.874Z,49.76
2019-06-20T17:31:05.401Z,49.57
2019-06-20T17:33:33.658Z,50.02
2019-06-20T17:36:14.420Z,50.33
2019-06-20T17:38:32.294Z,50.65
2019-06-20T17:41:01.391Z,49.97
2019-06-20T17:43:29.764Z,50.30
2019-06-20T17:45:58.047Z,49.37
2019-06-20T17:48:26.205Z,48.72
2019-06-20T17:50:54.664Z,48.76
2019-06-20T17:53:22.953Z,48.58
2019-06-20T17:55:51.312Z,48.62
2019-06-20T17:58:19.569Z,47.83
2019-06-20T18:00:47.744Z,47.52
2019-06-20T18:03:16.221Z,47.69
2019-06-20T18:05:45.880Z,47.63
2019-06-20T18:08:15.601Z,48.42
2019-06-20T18:10:43.884Z,52.45
2019-06-20T18:13:12.072Z,55.03
2019-06-20T18:15:41.908Z,56.73
2019-06-20T18:18:10.228Z,58.33
2019-06-20T18:20:38.532Z,58.81
2019-06-20T18:23:06.988Z,58.85
2019-06-20T18:25:35.297Z,58.52
2019-06-20T18:28:04.053Z,58.86
2019-06-20T18:30:40.505Z,59.16
2019-06-20T18:33:09.046Z,58.68
2019-06-20T18:35:37.261Z,58.81
2019-06-20T18:38:05.866Z,58.72
2019-06-20T18:40:34.037Z,59.14
2019-06-20T18:43:02.800Z,59.27
2019-06-20T18:45:31.105Z,58.19
2019-06-20T18:47:59.502Z,58.08
2019-06-20T18:50:29.561Z,58.45
2019-06-20T18:52:58.156Z,58.03
2019-06-20T18:55:26.442Z,58.71
2019-06-20T18:57:54.957Z,59.13
2019-06-20T19:00:34.058Z,60.15
2019-06-20T19:02:54.979Z,61.91
2019-06-20T19:05:23.234Z,63.29
2019-06-20T19:07:51.498Z,63.75
2019-06-20T19:10:24.438Z,64.33
2019-06-20T19:12:52.638Z,65.30
2019-06-20T19:15:24.585Z,65.98
2019-06-20T19:17:52.738Z,67.07
2019-06-20T19:20:21.280Z,67.90
2019-06-20T19:22:49.680Z,67.97
2019-06-20T19:25:17.991Z,68.84
2019-06-20T19:27:47.092Z,68.82
2019-06-20T19:30:16.943Z,68.89
2019-06-20T19:32:45.141Z,70.12
2019-06-20T19:35:13.467Z,71.51
2019-06-20T19:37:41.633Z,71.74
2019-06-20T19:40:12.413Z,73.18
2019-06-20T19:42:40.760Z,73.05
2019-06-20T19:45:10.640Z,73.04
2019-06-20T19:47:39.284Z,73.79
2019-06-20T19:50:10.935Z,73.92
2019-06-20T19:52:39.237Z,74.32
2019-06-20T19:55:07.828Z,74.93
2019-06-20T19:57:36.792Z,76.04
2019-06-20T20:00:06.032Z,76.73
2019-06-20T20:02:34.234Z,77.11
2019-06-20T20:05:17.807Z,77.33
2019-06-20T20:07:34.358Z,77.84
2019-06-20T20:10:03.440Z,77.63
2019-06-20T20:12:31.643Z,77.75
2019-06-20T20:15:01.639Z,77.64
2019-06-20T20:17:30.040Z,77.83
2019-06-20T20:19:58.196Z,77.81
2019-06-20T20:22:26.529Z,77.76
2019-06-20T20:24:55.032Z,77.95
2019-06-20T20:27:23.521Z,77.49
2019-06-20T20:29:52.198Z,77.97
2019-06-20T20:32:20.384Z,77.86
2019-06-20T20:34:48.600Z,78.02
2019-06-20T20:37:17.656Z,78.21
2019-06-20T20:39:45.875Z,78.07
2019-06-20T20:42:17.746Z,78.57
2019-06-20T20:44:45.714Z,78.09
2019-06-20T20:47:14.090Z,77.84
2019-06-20T20:49:42.775Z,77.96
2019-06-20T20:52:10.975Z,77.39
2019-06-20T20:54:39.469Z,77.71
2019-06-20T20:57:07.645Z,77.27
2019-06-20T20:59:35.865Z,77.04
2019-06-20T21:02:04.473Z,77.22
2019-06-20T21:04:32.669Z,77.17
2019-06-20T21:07:00.809Z,77.07
2019-06-20T21:09:29.272Z,76.27
2019-06-20T21:11:57.749Z,76.25
2019-06-20T21:14:25.984Z,76.44
2019-06-20T21:16:54.263Z,76.03
2019-06-20T21:19:22.497Z,75.09
2019-06-20T21:21:50.768Z,74.34
2019-06-20T21:24:19.378Z,73.75
2019-06-20T21:26:49.955Z,73.27
2019-06-20T21:29:17.993Z,73.15
2019-06-20T21:31:46.283Z,73.06
2019-06-20T21:34:14.951Z,72.80
2019-06-20T21:36:43.631Z,72.09
2019-06-20T21:39:11.885Z,72.82
2019-06-20T21:41:40.470Z,72.92
2019-06-20T21:44:09.159Z,72.62
2019-06-20T21:46:37.841Z,72.37
2019-06-20T21:49:06.198Z,72.35
2019-06-20T21:51:34.471Z,72.27
2019-06-20T21:54:02.722Z,71.51
2019-06-20T21:56:30.899Z,71.22
2019-06-20T21:58:59.040Z,71.64
2019-06-20T22:01:27.313Z,71.12
2019-06-20T22:03:55.469Z,71.76
2019-06-20T22:06:26.252Z,71.88
2019-06-20T22:08:54.533Z,71.77
2019-06-20T22:11:22.718Z,71.97
2019-06-20T22:13:51.648Z,72.30
2019-06-20T22:16:20.522Z,71.86
2019-06-20T22:18:48.673Z,71.83
2019-06-20T22:21:17.227Z,71.77
2019-06-20T22:23:45.684Z,71.64
2019-06-20T22:26:13.969Z,72.12
2019-06-20T22:28:42.431Z,71.25
2019-06-20T22:31:10.606Z,71.35
2019-06-20T22:33:39.331Z,71.99
2019-06-20T22:36:07.501Z,72.02
2019-06-20T22:38:36.504Z,71.71
2019-06-20T22:41:04.997Z,73.11
2019-06-20T22:43:33.839Z,72.93
2019-06-20T22:46:02.139Z,72.24
2019-06-20T22:48:30.714Z,72.24
2019-06-20T22:50:59.210Z,72.19
2019-06-20T22:53:27.592Z,72.68
2019-06-20T22:55:55.854Z,73.35
2019-06-20T22:58:24.370Z,72.66
2019-06-20T23:00:53.168Z,72.32
2019-06-20T23:03:21.402Z,73.01
2019-06-20T23:05:49.745Z,72.53
2019-06-20T23:08:18.282Z,72.69
2019-06-20T23:10:46.445Z,73.16
2019-06-20T23:13:14.746Z,72.64
2019-06-20T23:15:43.364Z,72.19
2019-06-20T23:18:12.218Z,72.10
2019-06-20T23:20:40.413Z,71.75
2019-06-20T23:23:09.022Z,72.44
2019-06-20T23:25:39.172Z,72.26
2019-06-20T23:28:07.511Z,72.29
2019-06-20T23:30:35.750Z,72.75
2019-06-20T23:33:04.035Z,72.47
2019-06-20T23:35:32.223Z,72.76
2019-06-20T23:38:00.741Z,73.22
2019-06-20T23:40:29.386Z,73.28
2019-06-20T23:42:57.583Z,72.41
2019-06-20T23:45:25.934Z,72.22
2019-06-20T23:47:54.140Z,72.22
2019-06-20T23:50:22.815Z,72.30
2019-06-20T23:52:57.032Z,72.42
2019-06-20T23:55:25.878Z,72.78
2019-06-20T23:57:54.412Z,73.12
